createdAt,value
2018-09-13T00:00:22.564Z,99.99
2018-09-13T00:01:53.929Z,99.99
2018-09-13T00:03:25.503Z,99.99
2018-09-13T00:06:28.738Z,99.99
2018-09-13T00:08:00.211Z,99.99
2018-09-13T00:09:31.785Z,99.99
2018-09-13T00:11:03.349Z,99.99
2018-09-13T00:12:35.019Z,99.99
2018-09-13T00:14:06.488Z,99.99
2018-09-13T00:15:38.117Z,99.99
2018-09-13T00:17:09.685Z,99.99
2018-09-13T00:18:41.554Z,99.99
2018-09-13T00:20:12.824Z,99.99
2018-09-13T00:21:44.396Z,99.99
2018-09-13T00:23:15.964Z,99.99
2018-09-13T00:24:47.684Z,99.99
2018-09-13T00:26:19.104Z,99.99
2018-09-13T00:27:50.673Z,99.99
2018-09-13T00:29:22.244Z,99.99
2018-09-13T00:30:54.470Z,99.99
2018-09-13T00:32:25.383Z,99.99
2018-09-13T00:33:56.953Z,99.99
2018-09-13T00:35:28.524Z,99.99
2018-09-13T00:37:00.343Z,99.99
2018-09-13T00:38:31.664Z,99.99
2018-09-13T00:40:03.233Z,99.99
2018-09-13T00:41:34.806Z,99.99
2018-09-13T00:43:06.574Z,99.99
2018-09-13T00:44:37.943Z,99.99
2018-09-13T00:46:09.513Z,99.99
2018-09-13T00:47:41.086Z,99.99
2018-09-13T00:49:12.803Z,99.99
2018-09-13T00:50:44.221Z,99.99
2018-09-13T00:52:15.792Z,99.99
2018-09-13T00:53:47.564Z,99.99
2018-09-13T00:55:19.233Z,99.99
2018-09-13T00:56:50.505Z,99.99
2018-09-13T00:58:22.072Z,99.99
2018-09-13T00:59:53.642Z,99.99
2018-09-13T01:01:25.368Z,99.99
2018-09-13T01:02:56.781Z,99.99
2018-09-13T01:04:28.352Z,99.99
2018-09-13T01:07:31.649Z,99.99
2018-09-13T01:09:03.061Z,99.99
2018-09-13T01:10:34.631Z,99.99
2018-09-13T01:12:06.201Z,99.99
2018-09-13T01:13:38.072Z,99.99
2018-09-13T01:15:09.344Z,99.99
2018-09-13T01:16:41.252Z,99.99
2018-09-13T01:18:12.481Z,99.99
2018-09-13T01:19:44.822Z,99.99
2018-09-13T01:21:15.620Z,99.99
2018-09-13T01:22:47.190Z,99.99
2018-09-13T01:24:18.759Z,99.99
2018-09-13T01:25:50.482Z,99.99
2018-09-13T01:27:21.900Z,99.99
2018-09-13T01:28:53.470Z,99.99
2018-09-13T01:30:25.041Z,99.99
2018-09-13T01:31:56.876Z,99.99
2018-09-13T01:33:28.179Z,99.99
2018-09-13T01:34:59.752Z,99.99
2018-09-13T01:36:31.319Z,99.99
2018-09-13T01:38:03.040Z,99.99
2018-09-13T01:39:34.457Z,99.99
2018-09-13T01:41:06.027Z,99.99
2018-09-13T01:42:37.597Z,99.99
2018-09-13T01:44:09.317Z,99.99
2018-09-13T01:45:41.510Z,99.99
2018-09-13T01:47:12.306Z,99.99
2018-09-13T01:48:43.881Z,99.99
2018-09-13T01:50:15.697Z,99.99
2018-09-13T01:51:47.017Z,99.99
2018-09-13T01:53:18.586Z,99.99
2018-09-13T01:54:50.155Z,99.99
2018-09-13T01:56:21.928Z,99.99
2018-09-13T01:57:53.295Z,99.99
2018-09-13T01:59:24.866Z,99.99
2018-09-13T02:00:56.443Z,99.99
2018-09-13T02:02:28.106Z,99.99
2018-09-13T02:03:59.691Z,99.99
2018-09-13T02:05:31.145Z,99.99
2018-09-13T02:07:02.714Z,99.99
2018-09-13T02:08:34.587Z,99.99
2018-09-13T02:10:05.857Z,99.99
2018-09-13T02:11:37.424Z,99.99
2018-09-13T02:13:09.011Z,99.99
2018-09-13T02:14:40.768Z,99.99
2018-09-13T02:16:12.134Z,99.99
2018-09-13T02:17:43.703Z,99.99
2018-09-13T02:19:15.273Z,99.99
2018-09-13T02:20:46.993Z,99.99
2018-09-13T02:22:18.413Z,99.99
2018-09-13T02:23:49.983Z,99.99
2018-09-13T02:25:21.553Z,99.99
2018-09-13T02:26:53.376Z,99.99
2018-09-13T02:28:24.725Z,99.99
2018-09-13T02:29:56.262Z,99.99
2018-09-13T02:31:27.834Z,99.99
2018-09-13T02:32:59.554Z,99.99
2018-09-13T02:34:30.974Z,99.99
2018-09-13T02:36:02.542Z,99.99
2018-09-13T02:37:34.112Z,99.99
2018-09-13T02:39:05.832Z,99.99
2018-09-13T02:40:37.257Z,99.99
2018-09-13T02:42:08.768Z,99.99
2018-09-13T02:43:40.336Z,99.99
2018-09-13T02:45:12.106Z,99.99
2018-09-13T02:47:09.191Z,99.99
2018-09-13T02:48:15.088Z,99.99
2018-09-13T02:49:46.858Z,99.99
2018-09-13T02:51:18.326Z,99.99
2018-09-13T02:52:49.812Z,99.99
2018-09-13T02:54:21.384Z,99.99
2018-09-13T02:55:52.954Z,99.99
2018-09-13T02:57:24.672Z,99.99
2018-09-13T02:58:56.661Z,99.99
2018-09-13T03:00:27.662Z,99.99
2018-09-13T03:01:59.232Z,99.99
2018-09-13T03:03:31.906Z,99.99
2018-09-13T03:05:02.371Z,99.99
2018-09-13T03:06:33.944Z,99.99
2018-09-13T03:08:05.553Z,99.99
2018-09-13T03:09:37.242Z,99.99
2018-09-13T03:11:08.651Z,99.99
2018-09-13T03:12:40.363Z,99.99
2018-09-13T03:14:11.849Z,99.99
2018-09-13T03:15:43.511Z,99.99
2018-09-13T03:17:14.934Z,99.99
2018-09-13T03:18:46.505Z,99.99
2018-09-13T03:20:18.071Z,99.99
2018-09-13T03:21:49.892Z,99.99
2018-09-13T03:23:21.211Z,99.99
2018-09-13T03:24:52.779Z,99.99
2018-09-13T03:26:24.349Z,99.99
2018-09-13T03:27:56.069Z,99.99
2018-09-13T03:29:27.489Z,99.99
2018-09-13T03:30:59.057Z,99.99
2018-09-13T03:32:30.583Z,99.99
2018-09-13T03:34:02.242Z,99.99
2018-09-13T03:35:33.711Z,99.99
2018-09-13T03:37:05.287Z,99.99
2018-09-13T03:38:36.851Z,99.99
2018-09-13T03:40:08.627Z,99.99
2018-09-13T03:41:40.216Z,99.99
2018-09-13T03:43:11.561Z,99.99
2018-09-13T03:44:43.131Z,99.99
2018-09-13T03:46:14.809Z,99.99
2018-09-13T03:49:17.842Z,99.99
2018-09-13T03:50:49.426Z,99.99
2018-09-13T03:52:21.081Z,99.99
2018-09-13T03:53:52.553Z,99.99
2018-09-13T03:55:24.121Z,99.99
2018-09-13T03:56:55.690Z,99.99
2018-09-13T03:58:27.460Z,99.99
2018-09-13T03:59:58.829Z,99.99
2018-09-13T04:01:30.402Z,99.99
2018-09-13T04:03:01.969Z,99.99
2018-09-13T04:04:33.647Z,99.99
2018-09-13T04:06:05.116Z,99.99
2018-09-13T04:07:36.678Z,99.99
2018-09-13T04:09:08.262Z,99.99
2018-09-13T04:10:39.920Z,99.99
2018-09-13T04:12:11.386Z,99.99
2018-09-13T04:13:43.263Z,99.99
2018-09-13T04:15:14.532Z,99.99
2018-09-13T04:16:46.356Z,99.99
2018-09-13T04:18:17.674Z,99.99
2018-09-13T04:19:49.234Z,99.99
2018-09-13T04:21:20.812Z,99.99
2018-09-13T04:22:52.783Z,99.99
2018-09-13T04:24:23.944Z,99.99
2018-09-13T04:25:55.514Z,99.99
2018-09-13T04:27:27.084Z,99.99
2018-09-13T04:28:58.753Z,99.99
2018-09-13T04:30:30.223Z,99.99
2018-09-13T04:32:01.794Z,99.99
2018-09-13T04:33:33.362Z,99.99
2018-09-13T04:35:05.134Z,99.99
2018-09-13T04:36:36.512Z,99.99
2018-09-13T04:38:08.073Z,99.99
2018-09-13T04:39:39.642Z,99.99
2018-09-13T04:41:11.312Z,99.99
2018-09-13T04:42:42.785Z,99.99
2018-09-13T04:44:14.356Z,99.99
2018-09-13T04:45:46.124Z,99.99
2018-09-13T04:47:17.597Z,99.99
2018-09-13T04:48:49.061Z,99.99
2018-09-13T04:50:20.630Z,99.99
2018-09-13T04:51:52.201Z,99.99
2018-09-13T04:53:24.170Z,99.99
2018-09-13T04:54:55.340Z,99.99
2018-09-13T04:56:26.909Z,99.99
2018-09-13T04:57:58.480Z,99.99
2018-09-13T04:59:30.149Z,99.99
2018-09-13T05:01:01.618Z,99.99
2018-09-13T05:02:33.197Z,99.99
2018-09-13T05:04:04.759Z,99.99
2018-09-13T05:05:36.429Z,99.99
2018-09-13T05:07:07.899Z,99.99
2018-09-13T05:08:39.469Z,99.99
2018-09-13T05:10:11.036Z,99.99
2018-09-13T05:11:43.009Z,99.99
2018-09-13T05:13:14.177Z,99.99
2018-09-13T05:14:45.747Z,99.99
2018-09-13T05:16:17.316Z,99.99
2018-09-13T05:17:48.987Z,99.99
2018-09-13T05:19:20.456Z,99.99
2018-09-13T05:20:52.026Z,99.99
2018-09-13T05:22:23.595Z,99.99
2018-09-13T05:23:55.264Z,99.99
2018-09-13T05:25:26.741Z,99.99
2018-09-13T05:26:58.306Z,99.99
2018-09-13T05:28:29.873Z,99.99
2018-09-13T05:30:01.646Z,99.99
2018-09-13T05:31:33.061Z,99.99
2018-09-13T05:33:04.585Z,99.99
2018-09-13T05:34:36.150Z,99.99
2018-09-13T05:36:08.022Z,99.99
2018-09-13T05:37:39.294Z,99.99
2018-09-13T05:39:10.866Z,99.99
2018-09-13T05:40:42.431Z,99.99
2018-09-13T05:42:14.100Z,99.99
2018-09-13T05:43:45.570Z,99.99
2018-09-13T05:45:17.140Z,99.99
2018-09-13T05:46:48.713Z,99.99
2018-09-13T05:48:20.479Z,99.99
2018-09-13T05:49:51.848Z,99.99
2018-09-13T05:51:23.418Z,99.99
2018-09-13T05:52:54.989Z,99.99
2018-09-13T05:54:26.708Z,99.99
2018-09-13T05:55:58.127Z,99.99
2018-09-13T05:57:29.696Z,99.99
2018-09-13T05:59:01.267Z,99.99
2018-09-13T06:00:32.936Z,99.99
2018-09-13T06:02:04.407Z,99.99
2018-09-13T06:03:35.976Z,99.99
2018-09-13T06:05:07.548Z,99.99
2018-09-13T06:06:39.265Z,99.99
2018-09-13T06:08:10.685Z,99.99
2018-09-13T06:09:42.254Z,99.99
2018-09-13T06:11:13.823Z,99.99
2018-09-13T06:12:45.695Z,99.99
2018-09-13T06:14:16.962Z,99.99
2018-09-13T06:15:48.536Z,99.99
2018-09-13T06:17:20.102Z,99.99
2018-09-13T06:18:52.076Z,99.99
2018-09-13T06:20:23.240Z,99.99
2018-09-13T06:21:54.811Z,99.99
2018-09-13T06:23:26.382Z,99.99
2018-09-13T06:24:58.451Z,99.99
2018-09-13T06:26:29.520Z,99.99
2018-09-13T06:28:01.089Z,99.99
2018-09-13T06:29:32.740Z,99.99
2018-09-13T06:31:04.330Z,99.99
2018-09-13T06:32:35.798Z,99.99
2018-09-13T06:34:07.368Z,99.99
2018-09-13T06:35:38.937Z,99.99
2018-09-13T06:37:10.658Z,99.99
2018-09-13T06:38:42.077Z,99.99
2018-09-13T06:40:13.647Z,99.99
2018-09-13T06:41:45.523Z,99.99
2018-09-13T06:43:16.988Z,99.99
2018-09-13T06:44:48.359Z,99.99
2018-09-13T06:46:19.930Z,99.99
2018-09-13T06:47:51.498Z,99.99
2018-09-13T06:49:23.167Z,99.99
2018-09-13T06:50:54.636Z,99.99
2018-09-13T06:52:26.205Z,99.99
2018-09-13T06:53:57.777Z,99.99
2018-09-13T06:55:29.500Z,99.99
2018-09-13T06:57:00.915Z,99.99
2018-09-13T06:58:32.484Z,99.99
2018-09-13T07:00:04.054Z,99.99
2018-09-13T07:01:35.924Z,99.99
2018-09-13T07:03:07.193Z,99.99
2018-09-13T07:04:38.769Z,99.99
2018-09-13T07:06:10.333Z,99.99
2018-09-13T07:07:42.003Z,99.99
2018-09-13T07:09:13.579Z,99.99
2018-09-13T07:10:45.042Z,99.99
2018-09-13T07:12:16.611Z,99.99
2018-09-13T07:13:48.282Z,99.99
2018-09-13T07:15:19.751Z,99.99
2018-09-13T07:16:51.322Z,99.99
2018-09-13T07:18:22.890Z,99.99
2018-09-13T07:19:54.661Z,99.99
2018-09-13T07:21:26.029Z,99.99
2018-09-13T07:22:57.599Z,99.99
2018-09-13T07:24:29.168Z,99.99
2018-09-13T07:26:00.891Z,99.99
2018-09-13T07:27:32.307Z,99.99
2018-09-13T07:29:03.878Z,99.99
2018-09-13T07:30:35.448Z,99.99
2018-09-13T07:32:07.167Z,99.99
2018-09-13T07:33:38.586Z,99.99
2018-09-13T07:35:10.155Z,99.99
2018-09-13T07:36:41.732Z,99.99
2018-09-13T07:38:13.495Z,99.99
2018-09-13T07:39:44.866Z,99.99
2018-09-13T07:41:16.434Z,99.99
2018-09-13T07:42:48.085Z,99.99
2018-09-13T07:44:19.874Z,99.99
2018-09-13T07:45:51.143Z,99.99
2018-09-13T07:47:22.712Z,99.99
2018-09-13T07:48:54.325Z,99.99
2018-09-13T07:50:25.952Z,99.99
2018-09-13T07:51:57.421Z,99.99
2018-09-13T07:53:28.991Z,99.99
2018-09-13T07:55:00.560Z,99.99
2018-09-13T07:56:32.562Z,99.99
2018-09-13T07:58:03.699Z,99.99
2018-09-13T07:59:35.270Z,99.99
2018-09-13T08:01:06.840Z,99.99
2018-09-13T08:02:38.568Z,99.99
2018-09-13T08:04:09.986Z,99.99
2018-09-13T08:07:13.118Z,99.99
2018-09-13T08:08:44.838Z,99.99
2018-09-13T08:10:16.261Z,99.99
2018-09-13T08:11:47.862Z,99.99
2018-09-13T08:13:19.398Z,99.99
2018-09-13T08:14:51.419Z,99.99
2018-09-13T08:16:22.536Z,99.99
2018-09-13T08:17:54.105Z,99.99
2018-09-13T08:19:25.676Z,99.99
2018-09-13T08:20:57.346Z,99.99
2018-09-13T08:22:28.818Z,99.99
2018-09-13T08:24:00.387Z,99.99
2018-09-13T08:25:31.955Z,99.99
2018-09-13T08:27:03.891Z,99.99
2018-09-13T08:28:35.155Z,99.99
2018-09-13T08:30:06.664Z,99.99
2018-09-13T08:31:38.233Z,99.99
2018-09-13T08:33:10.114Z,99.99
2018-09-13T08:34:41.427Z,99.99
2018-09-13T08:36:12.949Z,99.99
2018-09-13T08:37:44.513Z,99.99
2018-09-13T08:39:16.183Z,99.99
2018-09-13T08:40:47.652Z,99.99
2018-09-13T08:42:19.222Z,99.99
2018-09-13T08:43:50.792Z,99.99
2018-09-13T08:45:22.662Z,99.99
2018-09-13T08:46:54.156Z,99.99
2018-09-13T08:48:25.522Z,99.99
2018-09-13T08:49:57.072Z,99.99
2018-09-13T08:51:28.892Z,99.99
2018-09-13T08:53:00.211Z,99.99
2018-09-13T08:54:31.782Z,99.99
2018-09-13T08:56:03.351Z,99.99
2018-09-13T08:57:35.221Z,99.99
2018-09-13T08:59:06.491Z,99.99
2018-09-13T09:00:38.103Z,99.99
2018-09-13T09:02:09.631Z,99.99
2018-09-13T09:03:41.302Z,99.99
2018-09-13T09:05:12.771Z,99.99
2018-09-13T09:06:44.340Z,99.99
2018-09-13T09:08:15.913Z,99.99
2018-09-13T09:09:47.680Z,99.99
2018-09-13T09:11:19.050Z,99.99
2018-09-13T09:12:50.620Z,99.99
2018-09-13T09:14:22.189Z,99.99
2018-09-13T09:15:53.859Z,99.99
2018-09-13T09:17:25.329Z,99.99
2018-09-13T09:20:28.469Z,99.99
2018-09-13T09:22:00.191Z,99.99
2018-09-13T09:23:31.675Z,99.99
2018-09-13T09:26:34.749Z,99.99
2018-09-13T09:28:06.521Z,99.99
2018-09-13T09:29:37.889Z,99.99
2018-09-13T09:31:09.459Z,99.99
2018-09-13T09:32:41.030Z,99.99
2018-09-13T09:34:12.700Z,99.99
2018-09-13T09:35:44.171Z,99.99
2018-09-13T09:37:15.941Z,99.99
2018-09-13T09:38:47.310Z,99.99
2018-09-13T09:40:18.983Z,99.99
2018-09-13T09:41:50.981Z,99.99
2018-09-13T09:43:22.023Z,99.99
2018-09-13T09:47:56.977Z,99.99
2018-09-13T09:49:28.505Z,99.99
2018-09-13T09:50:59.872Z,99.99
2018-09-13T09:52:31.878Z,99.99
2018-09-13T09:54:03.656Z,99.99
2018-09-13T09:55:35.919Z,99.99
2018-09-13T09:57:07.277Z,99.99
2018-09-13T09:58:37.954Z,99.99
2018-09-13T10:00:10.316Z,99.99
2018-09-13T10:01:41.181Z,99.99
2018-09-13T10:03:13.528Z,99.99
2018-09-13T10:04:44.725Z,99.99
2018-09-13T10:06:15.927Z,99.99
2018-09-13T10:07:47.447Z,99.99
2018-09-13T10:09:19.216Z,99.99
2018-09-13T10:10:50.710Z,99.99
2018-09-13T10:12:22.315Z,99.99
2018-09-13T10:13:54.191Z,99.99
2018-09-13T10:15:25.318Z,99.99
2018-09-13T10:16:56.927Z,99.99
2018-09-13T10:18:29.048Z,99.99
2018-09-13T10:20:00.499Z,99.99
2018-09-13T10:21:31.427Z,99.99
2018-09-13T10:24:35.465Z,99.99
2018-09-13T10:26:06.036Z,99.99
2018-09-13T10:27:38.802Z,99.99
2018-09-13T10:29:09.406Z,99.99
2018-09-13T10:30:42.214Z,99.99
2018-09-13T10:32:12.768Z,99.99
2018-09-13T10:33:45.205Z,99.99
2018-09-13T10:35:15.637Z,99.99
2018-09-13T10:36:47.925Z,99.99
2018-09-13T10:38:18.828Z,99.99
2018-09-13T10:39:50.203Z,99.99
2018-09-13T10:41:22.052Z,99.99
2018-09-13T10:42:55.008Z,99.99
2018-09-13T10:45:57.453Z,99.99
2018-09-13T10:47:28.156Z,99.99
2018-09-13T10:50:32.216Z,99.99
2018-09-13T10:52:03.492Z,99.99
2018-09-13T10:53:34.521Z,99.99
2018-09-13T10:55:06.067Z,99.99
2018-09-13T10:56:37.881Z,99.99
2018-09-13T10:58:09.082Z,99.99
2018-09-13T10:59:41.183Z,99.99
2018-09-13T11:01:12.217Z,99.99
2018-09-13T11:02:44.019Z,99.99
2018-09-13T11:04:15.532Z,99.99
2018-09-13T11:05:48.227Z,99.99
2018-09-13T11:07:20.489Z,99.99
2018-09-13T11:08:52.710Z,99.99
2018-09-13T11:10:23.093Z,99.99
2018-09-13T11:11:54.034Z,99.99
2018-09-13T11:13:25.199Z,99.99
2018-09-13T11:14:56.956Z,99.99
2018-09-13T11:16:28.917Z,99.99
2018-09-13T11:18:00.762Z,99.99
2018-09-13T11:21:03.635Z,99.99
2018-09-13T11:22:35.165Z,99.99
2018-09-13T11:24:06.914Z,99.99
2018-09-13T11:25:38.732Z,99.99
2018-09-13T11:27:09.873Z,99.99
2018-09-13T11:28:41.121Z,99.99
2018-09-13T11:30:12.134Z,99.99
2018-09-13T11:31:44.349Z,99.99
2018-09-13T11:33:16.553Z,99.99
2018-09-13T11:34:47.602Z,99.99
2018-09-13T11:36:18.779Z,99.99
2018-09-13T11:37:50.490Z,99.99
2018-09-13T11:39:24.567Z,99.99
2018-09-13T11:40:55.001Z,99.99
2018-09-13T11:42:24.850Z,99.99
2018-09-13T11:43:58.611Z,99.99
2018-09-13T11:45:30.212Z,99.99
2018-09-13T11:47:00.230Z,99.99
2018-09-13T11:48:31.869Z,99.99
2018-09-13T11:50:04.315Z,99.99
2018-09-13T11:51:35.819Z,99.99
2018-09-13T11:53:07.709Z,99.99
2018-09-13T11:54:38.424Z,99.99
2018-09-13T11:56:09.060Z,99.99
2018-09-13T11:57:42.259Z,99.99
2018-09-13T11:59:12.212Z,99.99
2018-09-13T12:00:46.236Z,99.99
2018-09-13T12:02:16.203Z,99.99
2018-09-13T12:03:47.890Z,99.99
2018-09-13T12:05:20.835Z,99.99
2018-09-13T12:06:52.257Z,99.99
2018-09-13T12:08:22.402Z,99.99
2018-09-13T12:09:54.435Z,99.99
2018-09-13T12:11:25.680Z,99.99
2018-09-13T12:12:56.935Z,99.99
2018-09-13T12:14:28.888Z,99.99
2018-09-13T12:16:00.058Z,99.99
2018-09-13T12:17:32.266Z,99.99
2018-09-13T12:19:04.025Z,99.99
2018-09-13T12:20:35.604Z,99.99
2018-09-13T12:22:07.874Z,99.99
2018-09-13T12:23:37.742Z,99.99
2018-09-13T12:25:09.515Z,99.99
2018-09-13T12:26:40.999Z,99.98
2018-09-13T12:28:12.875Z,99.99
2018-09-13T12:29:44.194Z,99.99
2018-09-13T12:31:15.568Z,99.99
2018-09-13T12:32:46.645Z,99.99
2018-09-13T12:34:18.733Z,99.99
2018-09-13T12:35:50.828Z,99.99
2018-09-13T12:37:23.147Z,99.99
2018-09-13T12:38:53.702Z,99.99
2018-09-13T12:40:25.790Z,99.99
2018-09-13T12:41:57.737Z,99.99
2018-09-13T12:43:29.202Z,99.99
2018-09-13T12:45:00.369Z,99.99
2018-09-13T12:46:31.043Z,99.99
2018-09-13T12:48:03.322Z,99.99
2018-09-13T12:49:35.460Z,99.99
2018-09-13T12:51:07.000Z,99.69
2018-09-13T12:52:38.874Z,99.16
2018-09-13T12:54:09.603Z,97.57
2018-09-13T12:55:41.072Z,96.80
2018-09-13T12:57:12.455Z,96.61
2018-09-13T12:58:44.897Z,96.80
2018-09-13T13:00:16.518Z,96.80
2018-09-13T13:01:46.948Z,96.37
2018-09-13T13:03:18.145Z,96.17
2018-09-13T13:04:50.214Z,95.16
2018-09-13T13:06:21.332Z,94.34
2018-09-13T13:07:52.828Z,96.61
2018-09-13T13:09:24.675Z,95.16
2018-09-13T13:10:56.395Z,96.22
2018-09-13T13:12:28.207Z,94.44
2018-09-13T13:13:59.736Z,91.44
2018-09-13T13:15:30.729Z,92.76
2018-09-13T13:17:02.776Z,95.98
2018-09-13T13:18:34.081Z,95.79
2018-09-13T13:20:06.392Z,96.42
2018-09-13T13:21:37.227Z,98.19
2018-09-13T13:23:09.100Z,99.49
2018-09-13T13:24:40.254Z,97.19
2018-09-13T13:26:12.274Z,97.72
2018-09-13T13:27:43.624Z,96.12
2018-09-13T13:29:15.553Z,94.49
2018-09-13T13:30:46.698Z,94.87
2018-09-13T13:32:18.431Z,94.49
2018-09-13T13:33:49.765Z,95.11
2018-09-13T13:35:21.468Z,93.48
2018-09-13T13:36:53.486Z,92.22
2018-09-13T13:38:24.798Z,91.11
2018-09-13T13:39:56.143Z,91.93
2018-09-13T13:41:28.005Z,94.73
2018-09-13T13:42:59.631Z,94.34
2018-09-13T13:44:30.816Z,94.87
2018-09-13T13:46:02.458Z,93.09
2018-09-13T13:47:34.459Z,90.29
2018-09-13T13:49:05.756Z,88.98
2018-09-13T13:50:37.155Z,89.51
2018-09-13T13:52:08.706Z,92.51
2018-09-13T13:53:40.701Z,92.08
2018-09-13T13:55:12.069Z,93.81
2018-09-13T13:56:43.799Z,92.50
2018-09-13T13:59:47.331Z,90.87
2018-09-13T14:01:18.314Z,88.06
2018-09-13T14:02:50.057Z,87.88
2018-09-13T14:04:21.896Z,88.79
2018-09-13T14:05:54.125Z,85.59
2018-09-13T14:07:26.556Z,84.57
2018-09-13T14:08:56.503Z,84.35
2018-09-13T14:12:00.339Z,84.09
2018-09-13T14:13:31.055Z,82.97
2018-09-13T14:15:02.710Z,83.52
2018-09-13T14:16:35.437Z,86.66
2018-09-13T14:18:06.178Z,85.74
2018-09-13T14:19:37.668Z,87.73
2018-09-13T14:21:09.488Z,87.00
2018-09-13T14:22:40.633Z,84.72
2018-09-13T14:24:12.246Z,84.91
2018-09-13T14:25:44.064Z,85.55
2018-09-13T14:27:16.373Z,82.87
2018-09-13T14:28:46.656Z,85.99
2018-09-13T14:30:18.855Z,83.89
2018-09-13T14:31:50.325Z,80.76
2018-09-13T14:33:22.373Z,84.57
2018-09-13T14:34:56.324Z,82.54
2018-09-13T14:36:26.416Z,80.59
2018-09-13T14:37:58.406Z,81.48
2018-09-13T14:39:30.374Z,80.94
2018-09-13T14:41:00.146Z,84.10
2018-09-13T14:42:33.406Z,82.45
2018-09-13T14:44:03.870Z,78.79
2018-09-13T14:45:35.178Z,78.08
2018-09-13T14:47:07.973Z,80.01
2018-09-13T14:48:39.929Z,79.76
2018-09-13T14:50:10.408Z,76.12
2018-09-13T14:51:43.032Z,76.51
2018-09-13T14:53:14.634Z,76.02
2018-09-13T14:54:45.064Z,75.96
2018-09-13T14:56:16.715Z,76.28
2018-09-13T14:57:48.201Z,77.01
2018-09-13T14:59:20.054Z,77.44
2018-09-13T15:00:51.773Z,76.41
2018-09-13T15:02:22.989Z,76.12
2018-09-13T15:03:54.865Z,76.08
2018-09-13T15:05:25.227Z,78.33
2018-09-13T15:06:57.431Z,81.19
2018-09-13T15:08:28.063Z,80.49
2018-09-13T15:09:59.848Z,75.32
2018-09-13T15:11:31.568Z,73.44
2018-09-13T15:14:34.454Z,74.92
2018-09-13T15:16:05.763Z,76.91
2018-09-13T15:19:09.558Z,76.60
2018-09-13T15:20:40.923Z,73.54
2018-09-13T15:23:44.025Z,71.19
2018-09-13T15:25:15.273Z,69.22
2018-09-13T15:26:47.769Z,69.73
2018-09-13T15:29:50.249Z,73.09
2018-09-13T15:31:22.109Z,71.42
2018-09-13T15:32:53.439Z,70.21
2018-09-13T15:34:24.789Z,72.51
2018-09-13T15:35:56.681Z,72.02
2018-09-13T15:37:28.010Z,70.90
2018-09-13T15:39:00.848Z,69.86
2018-09-13T15:40:31.131Z,70.83
2018-09-13T15:42:02.837Z,73.02
2018-09-13T15:43:35.106Z,72.12
2018-09-13T15:45:07.915Z,71.70
2018-09-13T15:46:37.575Z,69.18
2018-09-13T15:48:09.491Z,69.89
2018-09-13T15:49:40.816Z,69.48
2018-09-13T15:51:12.331Z,68.60
2018-09-13T15:52:43.861Z,69.18
2018-09-13T15:54:15.631Z,68.73
2018-09-13T15:55:48.014Z,66.86
2018-09-13T15:57:19.331Z,68.79
2018-09-13T15:58:50.895Z,73.21
2018-09-13T16:00:22.009Z,71.93
2018-09-13T16:01:54.133Z,71.22
2018-09-13T16:03:25.558Z,71.28
2018-09-13T16:04:56.673Z,69.48
2018-09-13T16:06:29.184Z,68.35
2018-09-13T16:09:32.615Z,73.79
2018-09-13T16:11:04.297Z,71.70
2018-09-13T16:12:35.944Z,70.99
2018-09-13T16:14:06.723Z,70.92
2018-09-13T16:15:38.377Z,72.92
2018-09-13T16:17:09.266Z,71.41
2018-09-13T16:18:40.808Z,70.70
2018-09-13T16:20:12.512Z,69.70
2018-09-13T16:21:44.965Z,71.66
2018-09-13T16:23:15.712Z,71.25
2018-09-13T16:24:48.154Z,66.72
2018-09-13T16:26:18.991Z,67.08
2018-09-13T16:27:54.780Z,66.44
2018-09-13T16:29:23.351Z,65.95
2018-09-13T16:30:55.809Z,64.72
2018-09-13T16:32:27.223Z,65.17
2018-09-13T16:34:01.194Z,69.02
2018-09-13T16:35:28.649Z,70.03
2018-09-13T16:37:01.821Z,67.28
2018-09-13T16:38:33.270Z,65.92
2018-09-13T16:40:04.613Z,65.92
2018-09-13T16:41:36.738Z,67.86
2018-09-13T16:43:08.605Z,65.89
2018-09-13T16:44:38.644Z,64.23
2018-09-13T16:46:10.400Z,64.72
2018-09-13T16:47:42.046Z,65.59
2018-09-13T16:49:12.999Z,63.81
2018-09-13T16:50:44.273Z,61.05
2018-09-13T16:52:17.685Z,60.69
2018-09-13T16:53:48.283Z,61.93
2018-09-13T16:55:19.530Z,61.47
2018-09-13T16:56:50.473Z,62.32
2018-09-13T16:59:54.007Z,69.15
2018-09-13T17:01:25.186Z,73.10
2018-09-13T17:02:57.359Z,71.07
2018-09-13T17:04:28.570Z,69.29
2018-09-13T17:06:00.248Z,67.35
2018-09-13T17:07:32.302Z,67.67
2018-09-13T17:09:03.476Z,67.18
2018-09-13T17:10:34.703Z,67.22
2018-09-13T17:12:06.491Z,67.41
2018-09-13T17:13:37.927Z,70.16
2018-09-13T17:15:09.762Z,70.52
2018-09-13T17:16:41.053Z,69.29
2018-09-13T17:18:12.931Z,67.83
2018-09-13T17:19:44.216Z,69.20
2018-09-13T17:22:47.690Z,70.75
2018-09-13T17:24:19.084Z,71.11
2018-09-13T17:27:22.187Z,70.49
2018-09-13T17:28:53.727Z,71.07
2018-09-13T17:30:25.543Z,69.26
2018-09-13T17:31:56.937Z,68.57
2018-09-13T17:35:03.629Z,70.26
2018-09-13T17:36:31.750Z,68.90
2018-09-13T17:38:03.243Z,69.00
2018-09-13T17:39:35.022Z,68.19
2018-09-13T17:41:06.404Z,69.74
2018-09-13T17:42:38.092Z,70.87
2018-09-13T17:44:09.843Z,69.26
2018-09-13T17:45:41.785Z,67.73
2018-09-13T17:47:12.841Z,69.03
2018-09-13T17:48:44.841Z,71.52
2018-09-13T17:50:16.148Z,71.52
2018-09-13T17:51:48.028Z,71.72
2018-09-13T17:53:19.087Z,71.46
2018-09-13T17:57:53.933Z,72.94
2018-09-13T17:59:25.621Z,73.39
2018-09-13T18:00:57.609Z,73.20
2018-09-13T18:02:28.636Z,74.65
2018-09-13T18:04:00.724Z,73.18
2018-09-13T18:07:03.538Z,74.37
2018-09-13T18:08:35.277Z,75.78
2018-09-13T18:10:07.515Z,75.34
2018-09-13T18:11:38.393Z,74.50
2018-09-13T18:13:09.726Z,75.68
2018-09-13T18:16:13.242Z,76.52
2018-09-13T18:17:44.420Z,77.26
2018-09-13T18:19:16.004Z,77.26
2018-09-13T18:20:48.004Z,80.09
2018-09-13T18:22:19.895Z,80.03
2018-09-13T18:23:51.006Z,78.27
2018-09-13T18:25:22.541Z,77.94
2018-09-13T18:28:25.608Z,78.13
2018-09-13T18:31:28.738Z,78.11
2018-09-13T18:33:00.250Z,75.98
2018-09-13T18:34:32.472Z,77.36
2018-09-13T18:36:03.676Z,78.38
2018-09-13T18:37:35.003Z,80.87
2018-09-13T18:39:06.591Z,81.30
2018-09-13T18:40:38.425Z,83.15
2018-09-13T18:42:09.948Z,82.53
2018-09-13T18:45:12.934Z,82.90
2018-09-13T18:46:45.124Z,80.96
2018-09-13T18:48:16.131Z,80.90
2018-09-13T18:51:19.568Z,80.73
2018-09-13T18:54:23.044Z,82.41
2018-09-13T18:55:54.489Z,82.22
2018-09-13T18:58:57.751Z,80.46
2018-09-13T19:00:28.926Z,80.67
2018-09-13T19:02:00.352Z,84.52
2018-09-13T19:05:03.470Z,82.41
2018-09-13T19:06:35.251Z,83.28
2018-09-13T19:08:07.176Z,83.15
2018-09-13T19:09:38.212Z,84.11
2018-09-13T19:11:09.840Z,83.44
2018-09-13T19:12:41.566Z,84.52
2018-09-13T19:14:13.259Z,86.45
2018-09-13T19:15:44.585Z,88.63
2018-09-13T19:17:16.246Z,88.29
2018-09-13T19:20:19.679Z,89.69
2018-09-13T19:23:22.437Z,91.39
2018-09-13T19:24:54.220Z,92.31
2018-09-13T19:26:25.696Z,91.77
2018-09-13T19:27:57.707Z,90.71
2018-09-13T19:29:28.957Z,91.73
2018-09-13T19:32:32.317Z,96.12
2018-09-13T19:34:03.492Z,96.41
2018-09-13T19:35:35.071Z,97.14
2018-09-13T19:37:06.887Z,97.52
2018-09-13T19:41:41.584Z,99.99
2018-09-13T19:44:44.913Z,99.99
2018-09-13T19:46:16.151Z,99.99
2018-09-13T19:49:19.372Z,99.99
2018-09-13T19:50:51.417Z,99.99
2018-09-13T19:53:54.002Z,99.99
2018-09-13T19:55:25.678Z,99.99
2018-09-13T19:56:57.360Z,99.99
2018-09-13T19:58:28.730Z,99.99
2018-09-13T20:00:00.308Z,99.99
2018-09-13T20:01:32.083Z,99.99
2018-09-13T20:03:03.721Z,99.99
2018-09-13T20:04:35.115Z,99.99
2018-09-13T20:06:06.608Z,99.99
2018-09-13T20:07:38.305Z,99.99
2018-09-13T20:09:09.926Z,99.99
2018-09-13T20:12:13.113Z,99.99
2018-09-13T20:13:44.581Z,99.99
2018-09-13T20:15:16.992Z,99.99
2018-09-13T20:16:47.631Z,99.99
2018-09-13T20:18:19.303Z,99.99
2018-09-13T20:19:51.031Z,99.99
2018-09-13T20:21:22.350Z,99.99
2018-09-13T20:22:53.924Z,99.99
2018-09-13T20:24:25.499Z,99.99
2018-09-13T20:25:57.706Z,99.99
2018-09-13T20:29:00.317Z,99.99
2018-09-13T20:30:31.796Z,99.99
2018-09-13T20:32:03.464Z,99.99
2018-09-13T20:33:34.987Z,99.99
2018-09-13T20:35:06.511Z,99.99
2018-09-13T20:36:38.083Z,99.99
2018-09-13T20:38:09.858Z,99.99
2018-09-13T20:41:13.005Z,99.99
2018-09-13T20:42:44.480Z,99.99
2018-09-13T20:44:16.050Z,99.99
2018-09-13T20:47:19.097Z,99.99
2018-09-13T20:48:50.669Z,99.99